Weather at Brits Airport

Public forecast

Using degrees Celsius for public forecast. Weather courtesy of forecast.io.

Closest aviation weather report (METAR) to Brits Airport

Report is more than 6 hours old.

Closest report is Wonderboom Airport, 25.3 nm (46.9 km) ESE.

2022/11/14 15:00 (retrieved 2 years ago)

FAWB 141500Z AUTO 06004KT //// // ////// 26/13 Q1020

Closest aviation forecast (TAF) to Brits Airport

Forecast is more than 12 hours old.

Closest forecast is Lanseria International Airport, 25.7 nm (47.6 km) SSE.

2023/02/22 18:15 (retrieved 1 year ago)

TAF FALA 221600Z 2218/2318 VRB03KT CAVOK TX26/2313Z TN15/2303Z PROB30 TEMPO 2301/2306 BKN005 FM230700 VRB03KT 9999 BKN020 FM231000 VRB03KT CAVOK